Time;durP1;ratioP1;P1;durP2;ratioP2;P2;SDS_P1;SDS_P2;PMS_P1;PMS_P2;Temp;Humidity;BMP_temperature;BMP_pressure;BME280_temperature;BME280_humidity;BME280_pressure;Samples;Min_cycle;Max_cycle;Signal;HPM_P1;HPM_P2
2023/11/03 00:02:12;;;;;;;0.75;0.50;;;;;;;10.12;100.00;95435.06;15280274;19;20014;-50
2023/11/03 00:07:39;;;;;;;0.73;0.45;;;;;;;10.04;100.00;95387.03;15280612;19;20018;-49
2023/11/03 00:13:06;;;;;;;0.40;0.40;;;;;;;9.98;100.00;95409.44;15275021;19;20359;-53
2023/11/03 00:18:32;;;;;;;0.70;0.40;;;;;;;9.92;100.00;95413.06;15275914;19;20358;-51
2023/11/03 00:24:00;;;;;;;1.05;0.50;;;;;;;9.86;100.00;95423.69;15276511;19;20016;-49
2023/11/03 00:29:27;;;;;;;0.55;0.47;;;;;;;9.82;100.00;95427.88;15023909;19;5001709;-52
2023/11/03 00:34:54;;;;;;;0.40;0.40;;;;;;;9.76;100.00;95434.19;15272471;19;20110;-50
2023/11/03 00:40:25;;;;;;;1.38;0.43;;;;;;;9.70;100.00;95422.50;15278790;19;20017;-51
2023/11/03 00:45:54;;;;;;;1.20;0.50;;;;;;;9.64;100.00;95420.72;15268656;19;20038;-52
2023/11/03 00:51:22;;;;;;;2.03;0.40;;;;;;;9.62;100.00;95411.25;15271891;19;20043;-51
2023/11/03 00:56:47;;;;;;;2.03;0.47;;;;;;;9.57;100.00;95390.44;15274077;19;20413;-53
2023/11/03 01:02:15;;;;;;;1.35;0.50;;;;;;;9.50;100.00;95409.34;15274873;19;20074;-53
2023/11/03 01:07:42;;;;;;;1.00;0.50;;;;;;;9.45;100.00;95395.78;15273970;19;20010;-51
2023/11/03 01:13:10;;;;;;;1.17;0.60;;;;;;;9.38;100.00;95416.53;15275109;19;20035;-52
2023/11/03 01:18:39;;;;;;;1.42;0.45;;;;;;;9.29;100.00;95396.44;15266403;19;20018;-48
2023/11/03 01:24:04;;;;;;;1.52;0.70;;;;;;;9.23;100.00;95398.97;15270339;19;20026;-51
2023/11/03 01:29:30;;;;;;;2.78;0.60;;;;;;;9.22;100.00;95385.78;15275717;19;20014;-50
2023/11/03 01:34:59;;;;;;;1.45;0.80;;;;;;;9.19;100.00;95396.97;15270648;19;20708;-50
2023/11/03 01:40:24;;;;;;;1.73;0.50;;;;;;;9.13;100.00;95447.03;15270320;19;20038;-52
2023/11/03 01:45:49;;;;;;;1.40;0.70;;;;;;;9.08;100.00;95446.91;15265494;19;20014;-50
2023/11/03 01:51:17;;;;;;;1.77;0.90;;;;;;;9.02;100.00;95437.03;15270514;19;20023;-48
2023/11/03 01:56:44;;;;;;;2.60;1.00;;;;;;;8.97;100.00;95448.47;15271864;19;20045;-50
2023/11/03 02:02:12;;;;;;;5.07;0.80;;;;;;;8.99;100.00;95472.41;15270615;19;20019;-52
2023/11/03 02:07:47;;;;;;;2.33;0.90;;;;;;;9.01;100.00;95476.50;15256798;19;20086;-50
2023/11/03 02:13:13;;;;;;;2.90;0.95;;;;;;;9.04;100.00;95486.81;15269697;19;20011;-50
2023/11/03 02:18:39;;;;;;;3.10;0.77;;;;;;;9.17;100.00;95463.53;15262937;19;20512;-49
2023/11/03 02:24:08;;;;;;;1.75;0.80;;;;;;;9.15;100.00;95442.25;15270540;19;20081;-48
2023/11/03 02:29:33;;;;;;;2.97;0.80;;;;;;;9.10;100.00;95442.13;15268546;19;20015;-49
2023/11/03 02:34:58;;;;;;;3.45;1.00;;;;;;;8.94;100.00;95425.56;15266991;19;20269;-49
2023/11/03 02:40:26;;;;;;;2.80;1.00;;;;;;;8.88;100.00;95439.88;15270430;19;20014;-49
2023/11/03 02:45:52;;;;;;;2.50;0.90;;;;;;;8.77;100.00;95449.50;15267444;19;20010;-50
2023/11/03 02:51:16;;;;;;;3.47;0.98;;;;;;;8.70;100.00;95427.28;15266954;19;20078;-52
2023/11/03 02:56:44;;;;;;;2.38;0.82;;;;;;;8.54;100.00;95420.66;15266831;19;20010;-50
2023/11/03 03:02:09;;;;;;;3.95;0.90;;;;;;;8.51;100.00;95412.22;15268775;19;20558;-51
2023/11/03 03:07:45;;;;;;;2.90;0.85;;;;;;;8.51;100.00;95404.19;15268354;19;20017;-49
2023/11/03 03:13:12;;;;;;;5.40;1.05;;;;;;;8.46;100.00;95418.22;15269843;19;20037;-48
2023/11/03 03:18:37;;;;;;;5.60;1.20;;;;;;;8.41;100.00;95402.81;15267414;19;20017;-50
2023/11/03 03:24:02;;;;;;;4.63;1.17;;;;;;;8.37;100.00;95411.53;15262160;19;20108;-47
2023/11/03 03:29:29;;;;;;;4.00;0.98;;;;;;;8.29;100.00;95405.38;15268183;19;20021;-49
2023/11/03 03:34:54;;;;;;;3.65;1.00;;;;;;;8.16;100.00;95402.84;15263300;19;20032;-48
2023/11/03 03:40:21;;;;;;;3.72;1.10;;;;;;;8.00;100.00;95405.03;15263542;19;20444;-49
2023/11/03 03:45:48;;;;;;;5.15;1.50;;;;;;;7.95;100.00;95426.31;15277282;19;20018;-48
2023/11/03 03:51:15;;;;;;;4.43;1.17;;;;;;;8.01;100.00;95420.09;15284062;19;20030;-53
2023/11/03 03:56:40;;;;;;;5.45;1.13;;;;;;;7.90;100.00;95434.19;15268356;19;20025;-51
2023/11/03 04:02:07;;;;;;;6.40;1.48;;;;;;;7.82;100.00;95463.97;15288778;19;20011;-51
2023/11/03 04:07:41;;;;;;;4.82;1.08;;;;;;;7.79;100.00;95461.69;15293299;19;20031;-53
2023/11/03 04:13:06;;;;;;;3.50;1.10;;;;;;;7.72;100.00;95459.88;15275479;19;20456;-52
2023/11/03 04:18:33;;;;;;;4.32;1.02;;;;;;;7.64;100.00;95448.63;15274263;19;20486;-53
2023/11/03 04:23:58;;;;;;;3.63;1.20;;;;;;;7.54;100.00;95446.41;15277430;19;20018;-50
2023/11/03 04:29:23;;;;;;;6.38;1.40;;;;;;;7.46;100.00;95427.91;15274475;19;20019;-51
2023/11/03 04:34:51;;;;;;;7.60;1.42;;;;;;;7.37;100.00;95441.53;15273811;19;20347;-51
2023/11/03 04:40:19;;;;;;;5.90;1.27;;;;;;;7.29;100.00;95424.94;15273031;19;20392;-54
2023/11/03 04:45:44;;;;;;;5.30;1.30;;;;;;;7.19;100.00;95426.19;15273149;19;20014;-54
2023/11/03 04:51:13;;;;;;;5.65;1.40;;;;;;;7.11;100.00;95425.63;15279090;19;20406;-49
2023/11/03 04:56:38;;;;;;;4.35;1.20;;;;;;;7.00;100.00;95430.59;15239201;19;20024;-54
2023/11/03 05:02:04;;;;;;;4.10;1.50;;;;;;;6.86;100.00;95439.75;15270154;19;20087;-55
2023/11/03 05:07:38;;;;;;;3.80;1.00;;;;;;;6.66;100.00;95424.56;15271100;19;20010;-49
2023/11/03 05:13:03;;;;;;;5.07;1.10;;;;;;;6.47;100.00;95410.22;15275111;19;20019;-54
2023/11/03 05:18:28;;;;;;;4.80;0.90;;;;;;;6.29;100.00;95408.22;15273555;19;20479;-49
2023/11/03 05:23:57;;;;;;;4.57;1.00;;;;;;;6.12;100.00;95408.66;15271489;19;20024;-51
2023/11/03 05:29:22;;;;;;;5.00;1.10;;;;;;;6.02;100.00;95410.94;15273339;19;20014;-49
2023/11/03 05:34:47;;;;;;;3.30;0.80;;;;;;;6.04;100.00;95406.19;15266281;19;20586;-50
2023/11/03 05:40:18;;;;;;;5.07;1.23;;;;;;;6.08;100.00;95409.28;15268862;19;20029;-49
2023/11/03 05:45:43;;;;;;;3.53;1.00;;;;;;;6.05;100.00;95417.69;15268613;19;20023;-51
2023/11/03 05:51:07;;;;;;;3.08;0.93;;;;;;;5.96;100.00;95419.72;15274596;19;20016;-52
2023/11/03 05:56:34;;;;;;;4.90;1.00;;;;;;;5.94;100.00;95416.47;15268356;19;20482;-51
2023/11/03 06:01:59;;;;;;;4.88;1.15;;;;;;;5.96;100.00;95411.69;15268750;19;20082;-51
2023/11/03 06:07:30;;;;;;;4.95;1.10;;;;;;;5.96;100.00;95420.56;15257743;19;20027;-51
2023/11/03 06:12:58;;;;;;;4.05;1.00;;;;;;;5.90;100.00;95452.63;15270174;19;20035;-52
2023/11/03 06:18:22;;;;;;;4.82;1.23;;;;;;;5.83;100.00;95458.75;15269047;19;21022;-50
2023/11/03 06:23:47;;;;;;;3.47;0.98;;;;;;;5.76;100.00;95470.50;15268300;19;20040;-55
2023/11/03 06:29:14;;;;;;;2.80;0.90;;;;;;;5.76;100.00;95468.63;15272002;19;20078;-48
2023/11/03 06:34:39;;;;;;;2.72;1.00;;;;;;;5.76;100.00;95473.97;15267544;19;20029;-50
2023/11/03 06:40:03;;;;;;;4.43;1.25;;;;;;;5.77;100.00;95480.97;15263508;19;20018;-49
2023/11/03 06:45:31;;;;;;;6.93;1.00;;;;;;;5.79;100.00;95494.09;15266762;19;20010;-51
2023/11/03 06:50:56;;;;;;;4.15;1.10;;;;;;;5.73;100.00;95517.09;15269608;19;20011;-50
2023/11/03 06:56:21;;;;;;;3.65;0.98;;;;;;;5.64;100.00;95513.00;15264747;19;20489;-48
2023/11/03 07:01:48;;;;;;;3.85;0.90;;;;;;;5.60;100.00;95527.75;15266740;19;20020;-50
2023/11/03 07:07:20;;;;;;;4.50;1.27;;;;;;;5.71;100.00;95557.38;15262709;19;20392;-51
2023/11/03 07:12:45;;;;;;;3.67;0.95;;;;;;;5.80;100.00;95550.00;15262488;19;20489;-47
2023/11/03 07:18:12;;;;;;;3.13;0.82;;;;;;;5.90;100.00;95548.78;15272741;19;20022;-52
2023/11/03 07:23:37;;;;;;;5.43;1.20;;;;;;;6.03;100.00;95530.16;15280890;19;20529;-49
2023/11/03 07:29:02;;;;;;;4.25;0.90;;;;;;;6.14;100.00;95537.56;15283751;19;20017;-51
2023/11/03 07:34:30;;;;;;;5.20;0.90;;;;;;;6.18;100.00;95537.97;15277618;19;20014;-51
2023/11/03 07:39:57;;;;;;;3.47;0.98;;;;;;;6.16;100.00;95537.34;15276795;19;20028;-52
2023/11/03 07:45:23;;;;;;;2.50;0.90;;;;;;;6.16;100.00;95548.03;15015576;19;5001530;-49
2023/11/03 07:50:50;;;;;;;3.45;1.10;;;;;;;6.17;100.00;95539.00;15281689;19;20042;-54
2023/11/03 07:56:16;;;;;;;5.75;1.10;;;;;;;6.23;100.00;95548.88;15273797;19;20022;-47
2023/11/03 08:01:52;;;;;;;5.35;1.10;;;;;;;6.33;100.00;95537.75;15274495;19;20022;-50
2023/11/03 08:07:28;;;;;;;2.42;1.10;;;;;;;6.47;100.00;95538.56;15274817;19;20776;-51
2023/11/03 08:12:54;;;;;;;2.78;0.90;;;;;;;6.58;100.00;95562.03;15277666;19;20827;-50
2023/11/03 08:18:18;;;;;;;4.28;1.00;;;;;;;6.69;100.00;95579.28;15273954;19;20501;-54
2023/11/03 08:23:46;;;;;;;2.95;0.90;;;;;;;6.86;100.00;95565.50;15272094;19;20526;-49
2023/11/03 08:29:13;;;;;;;1.95;0.85;;;;;;;7.02;100.00;95530.25;15277822;19;20047;-47
2023/11/03 08:34:40;;;;;;;4.63;0.95;;;;;;;7.19;100.00;95519.09;15273005;19;20018;-52
2023/11/03 08:40:10;;;;;;;3.03;0.75;;;;;;;7.36;100.00;95514.06;15275979;19;20023;-50
2023/11/03 08:45:36;;;;;;;2.28;0.77;;;;;;;7.55;100.00;95512.34;15267896;19;20018;-49
2023/11/03 08:51:02;;;;;;;3.88;0.88;;;;;;;7.66;100.00;95519.69;15278815;19;20014;-48
2023/11/03 08:56:30;;;;;;;2.55;0.60;;;;;;;7.76;100.00;95529.94;15273094;19;20421;-48
2023/11/03 09:01:55;;;;;;;2.78;0.88;;;;;;;7.88;100.00;95559.56;15272445;19;21353;-47
2023/11/03 09:07:22;;;;;;;1.45;0.70;;;;;;;7.99;100.00;95558.88;15270878;19;20014;-49
2023/11/03 09:12:49;;;;;;;3.47;1.05;;;;;;;8.10;100.00;95568.09;15275652;19;20021;-50
2023/11/03 09:18:15;;;;;;;3.42;0.65;;;;;;;8.25;100.00;95569.63;15267969;19;20033;-49
2023/11/03 09:23:41;;;;;;;1.48;0.57;;;;;;;8.43;100.00;95558.16;15271998;19;20486;-47
2023/11/03 09:29:09;;;;;;;2.00;0.80;;;;;;;8.61;100.00;95573.53;15274184;19;20020;-47
2023/11/03 09:34:33;;;;;;;2.38;0.80;;;;;;;8.73;100.00;95552.97;15270744;19;20523;-50
2023/11/03 09:39:58;;;;;;;3.75;0.63;;;;;;;8.82;100.00;95542.78;15269688;19;20059;-51
2023/11/03 09:45:27;;;;;;;1.92;0.57;;;;;;;8.89;100.00;95519.38;15271112;19;20025;-48
2023/11/03 09:50:52;;;;;;;1.95;0.70;;;;;;;8.94;100.00;95538.31;15267117;19;20433;-54
2023/11/03 09:56:18;;;;;;;3.85;0.75;;;;;;;9.02;100.00;95522.97;15264940;19;20026;-56
2023/11/03 10:01:46;;;;;;;1.13;0.50;;;;;;;9.14;100.00;95517.69;15268833;19;20130;-51
2023/11/03 10:07:10;;;;;;;3.13;0.65;;;;;;;9.24;100.00;95508.03;15263711;19;20011;-51
2023/11/03 10:12:35;;;;;;;1.63;0.70;;;;;;;9.46;100.00;95499.53;15266926;19;20109;-49
2023/11/03 10:18:04;;;;;;;1.67;0.57;;;;;;;9.63;100.00;95493.50;15270247;19;20373;-51
2023/11/03 10:23:31;;;;;;;5.78;0.60;;;;;;;9.74;100.00;95506.16;15265930;19;20086;-51
2023/11/03 10:28:55;;;;;;;2.55;0.60;;;;;;;9.78;100.00;95523.50;15272537;19;20082;-52
2023/11/03 10:34:26;;;;;;;2.38;0.65;;;;;;;9.74;100.00;95508.06;15267504;19;20011;-53
2023/11/03 10:39:50;;;;;;;2.92;0.68;;;;;;;9.69;100.00;95514.94;15269094;19;20022;-51
2023/11/03 10:45:17;;;;;;;2.03;0.75;;;;;;;9.70;100.00;95510.38;15266707;19;20767;-53
2023/11/03 10:50:49;;;;;;;2.92;0.80;;;;;;;9.74;100.00;95508.06;15270944;19;20042;-56
2023/11/03 10:56:15;;;;;;;1.55;0.63;;;;;;;9.75;100.00;95513.19;15276669;19;20053;-51
2023/11/03 11:02:07;;;;;;;2.30;0.63;;;;;;;9.78;100.00;95533.41;15281405;19;20026;-52
2023/11/03 11:07:45;;;;;;;2.78;0.68;;;;;;;9.81;100.00;95541.88;15279378;19;20022;-52
2023/11/03 11:13:18;;;;;;;3.35;0.70;;;;;;;9.89;100.00;95556.84;15280406;19;20022;-54
2023/11/03 11:18:51;;;;;;;2.75;0.88;;;;;;;9.97;100.00;95563.78;15282962;19;20039;-52
2023/11/03 11:24:20;;;;;;;1.23;0.70;;;;;;;10.00;100.00;95569.50;15281719;19;20034;-52
2023/11/03 11:29:45;;;;;;;3.58;0.75;;;;;;;9.99;100.00;95575.13;15281210;19;20026;-53
2023/11/03 11:35:10;;;;;;;3.03;0.68;;;;;;;9.98;100.00;95576.16;15280627;19;20010;-52
2023/11/03 11:40:38;;;;;;;2.13;0.90;;;;;;;9.99;100.00;95577.81;15282147;19;20025;-50
2023/11/03 11:46:03;;;;;;;2.03;0.70;;;;;;;10.03;100.00;95585.19;15274473;19;20023;-49
2023/11/03 11:51:28;;;;;;;1.67;0.60;;;;;;;10.07;100.00;95588.25;15283165;19;20359;-51
2023/11/03 11:56:56;;;;;;;1.58;0.70;;;;;;;10.09;100.00;95582.66;15274177;19;20377;-50
2023/11/03 12:02:20;;;;;;;2.22;0.80;;;;;;;10.11;100.00;95580.56;15272502;19;20420;-50
2023/11/03 12:07:57;;;;;;;2.40;0.70;;;;;;;10.13;100.00;95578.44;15274483;19;20078;-60
2023/11/03 12:13:25;;;;;;;3.70;0.80;;;;;;;10.12;100.00;95566.88;15274286;19;20074;-52
2023/11/03 12:18:50;;;;;;;2.00;0.70;;;;;;;10.11;100.00;95569.81;15279281;19;20014;-50
2023/11/03 12:24:15;;;;;;;2.33;0.68;;;;;;;10.09;100.00;95561.94;15274807;19;20018;-51
2023/11/03 12:29:42;;;;;;;2.28;0.80;;;;;;;10.07;100.00;95553.28;15277661;19;20032;-54
2023/11/03 12:35:11;;;;;;;3.95;1.00;;;;;;;10.04;100.00;95543.00;15269032;19;20028;-53
2023/11/03 12:40:36;;;;;;;3.10;0.75;;;;;;;10.02;100.00;95550.47;15274547;19;20050;-51
2023/11/03 12:46:08;;;;;;;3.45;0.93;;;;;;;10.03;100.00;95562.88;15271809;19;20018;-50
2023/11/03 12:51:40;;;;;;;2.90;0.70;;;;;;;10.08;100.00;95554.94;15278916;19;20012;-51
2023/11/03 12:57:05;;;;;;;2.63;0.80;;;;;;;10.11;100.00;95549.09;15268305;19;20023;-52
2023/11/03 13:02:32;;;;;;;5.82;0.98;;;;;;;10.04;100.00;95543.00;15271191;19;20010;-52
2023/11/03 13:08:04;;;;;;;3.83;1.10;;;;;;;9.92;100.00;95559.09;15264572;19;20305;-51
2023/11/03 13:13:30;;;;;;;3.03;0.90;;;;;;;9.91;100.00;95559.31;15271970;19;20032;-50
2023/11/03 13:18:57;;;;;;;3.65;0.98;;;;;;;9.90;100.00;95544.22;15268430;19;20018;-52
2023/11/03 13:24:22;;;;;;;4.80;0.90;;;;;;;9.84;100.00;95549.47;15269898;19;20027;-52
2023/11/03 13:29:46;;;;;;;5.57;1.00;;;;;;;9.82;100.00;95577.63;15272587;19;20026;-51
2023/11/03 13:35:14;;;;;;;3.38;1.00;;;;;;;9.91;100.00;95599.66;15262324;19;20022;-54
2023/11/03 13:40:39;;;;;;;3.88;1.08;;;;;;;9.92;100.00;95603.97;15271694;19;20028;-54
2023/11/03 13:46:04;;;;;;;4.68;1.25;;;;;;;9.86;100.00;95611.09;15266885;19;20019;-51
2023/11/03 13:51:31;;;;;;;3.60;1.05;;;;;;;9.78;100.00;95625.66;15272277;19;20014;-50
2023/11/03 13:56:57;;;;;;;5.70;1.00;;;;;;;9.74;100.00;95623.66;15268846;19;20035;-50
2023/11/03 14:02:24;;;;;;;3.17;1.10;;;;;;;9.68;100.00;95626.19;15264403;19;20359;-50
2023/11/03 14:07:59;;;;;;;3.03;1.00;;;;;;;9.64;100.00;95624.16;15261592;19;20017;-54
2023/11/03 14:13:25;;;;;;;2.67;0.90;;;;;;;9.63;100.00;95639.47;15266814;19;20022;-54
2023/11/03 14:18:50;;;;;;;4.05;1.00;;;;;;;9.58;100.00;95636.63;15269522;19;20090;-57
2023/11/03 14:24:18;;;;;;;3.70;1.20;;;;;;;9.52;100.00;95637.53;15269820;19;20014;-53
2023/11/03 14:29:44;;;;;;;5.43;1.10;;;;;;;9.45;100.00;95634.91;15270081;19;20043;-54
2023/11/03 14:35:10;;;;;;;3.60;1.00;;;;;;;9.43;100.00;95633.47;15263571;19;20367;-54
2023/11/03 14:40:37;;;;;;;3.42;1.00;;;;;;;9.42;100.00;95632.66;15265648;19;20025;-53
2023/11/03 14:46:04;;;;;;;3.05;0.90;;;;;;;9.43;100.00;95634.31;15264198;19;20023;-51
2023/11/03 14:51:28;;;;;;;3.53;1.10;;;;;;;9.40;100.00;95637.44;15269444;19;20018;-53
2023/11/03 14:56:57;;;;;;;3.22;1.00;;;;;;;9.38;100.00;95628.78;15264618;19;20010;-56
2023/11/03 15:02:23;;;;;;;3.88;1.02;;;;;;;9.34;100.00;95641.03;15228508;19;20021;-54
2023/11/03 15:07:50;;;;;;;4.38;1.17;;;;;;;9.28;100.00;95637.38;15263348;19;20487;-50
2023/11/03 15:13:18;;;;;;;2.58;1.00;;;;;;;9.22;100.00;95633.72;15261689;19;20053;-53
2023/11/03 15:18:45;;;;;;;3.90;1.15;;;;;;;9.15;100.00;95632.94;15266370;19;20098;-56
2023/11/03 15:24:12;;;;;;;3.53;1.00;;;;;;;9.08;100.00;95622.25;15263584;19;20010;-58
2023/11/03 15:29:40;;;;;;;4.88;1.27;;;;;;;9.04;100.00;95630.97;15262279;19;20070;-53
2023/11/03 15:35:05;;;;;;;4.47;1.10;;;;;;;8.89;100.00;95628.63;15249370;19;20018;-55
2023/11/03 15:40:31;;;;;;;4.28;1.10;;;;;;;8.72;100.00;95631.84;15269149;19;20017;-53
2023/11/03 15:46:00;;;;;;;1.90;0.93;;;;;;;8.61;100.00;95633.38;15269715;19;20618;-49
2023/11/03 15:51:26;;;;;;;3.88;1.25;;;;;;;8.52;100.00;95640.06;15281014;19;20024;-55
2023/11/03 15:56:55;;;;;;;4.97;1.05;;;;;;;8.42;100.00;95648.56;15275507;19;20024;-53
2023/11/03 16:02:23;;;;;;;4.75;1.10;;;;;;;8.35;100.00;95653.13;15275807;19;20021;-53
2023/11/03 16:07:54;;;;;;;3.58;1.00;;;;;;;8.29;100.00;95668.22;15241388;19;20031;-52
2023/11/03 16:13:19;;;;;;;4.60;1.30;;;;;;;8.26;100.00;95679.38;15277566;19;20450;-52
2023/11/03 16:18:46;;;;;;;3.72;1.10;;;;;;;8.27;100.00;95686.41;15273626;19;20028;-52
2023/11/03 16:24:12;;;;;;;4.72;1.13;;;;;;;8.28;100.00;95693.41;15273303;19;20017;-53
2023/11/03 16:29:37;;;;;;;4.70;1.02;;;;;;;8.30;100.00;95687.81;15281189;19;20021;-53
2023/11/03 16:35:05;;;;;;;3.22;1.15;;;;;;;8.27;100.00;95694.44;15274769;19;20015;-52
2023/11/03 16:40:29;;;;;;;3.78;1.13;;;;;;;8.26;100.00;95700.84;15277777;19;20015;-54
2023/11/03 16:45:54;;;;;;;4.75;1.30;;;;;;;8.24;100.00;95708.28;15272813;19;20082;-54
2023/11/03 16:51:25;;;;;;;4.43;1.20;;;;;;;8.18;100.00;95703.75;15272126;19;20014;-54
2023/11/03 16:56:50;;;;;;;6.37;1.20;;;;;;;8.13;100.00;95717.00;15271676;19;20014;-56
2023/11/03 17:02:15;;;;;;;3.85;1.15;;;;;;;8.08;100.00;95719.47;15273736;19;20466;-55
2023/11/03 17:07:50;;;;;;;4.35;1.20;;;;;;;8.00;100.00;95720.53;15268758;19;20025;-55
2023/11/03 17:13:15;;;;;;;4.07;1.30;;;;;;;7.95;100.00;95725.72;15271323;19;20022;-51
2023/11/03 17:18:39;;;;;;;4.97;1.23;;;;;;;7.91;100.00;95736.03;15275755;19;20021;-56
2023/11/03 17:24:08;;;;;;;5.80;1.40;;;;;;;7.87;100.00;95745.53;15266872;19;20014;-52
2023/11/03 17:29:34;;;;;;;5.07;1.10;;;;;;;7.82;100.00;95754.19;15275898;19;20010;-52
2023/11/03 17:35:00;;;;;;;5.95;1.30;;;;;;;7.79;100.00;95765.31;15264082;19;20014;-53
2023/11/03 17:40:28;;;;;;;4.78;1.42;;;;;;;7.80;100.00;95771.53;15275434;19;20018;-55
2023/11/03 17:45:54;;;;;;;4.10;1.40;;;;;;;7.77;100.00;95785.34;15266349;19;20005;-52
2023/11/03 17:51:18;;;;;;;7.68;1.13;;;;;;;7.74;100.00;95799.97;15273075;19;20022;-56
2023/11/03 17:56:47;;;;;;;4.28;1.27;;;;;;;7.73;100.00;95790.28;15264539;19;20053;-55
2023/11/03 18:02:11;;;;;;;6.32;1.65;;;;;;;7.72;100.00;95786.78;15268765;19;20016;-51
2023/11/03 18:07:36;;;;;;;4.88;1.50;;;;;;;7.72;100.00;95797.50;15268493;19;20025;-51
2023/11/03 18:13:03;;;;;;;5.10;1.83;;;;;;;7.72;100.00;95799.38;15269663;19;20018;-54
2023/11/03 18:18:28;;;;;;;4.28;1.67;;;;;;;7.70;100.00;95807.59;15269437;19;20039;-50
2023/11/03 18:23:52;;;;;;;4.95;1.67;;;;;;;7.71;100.00;95811.13;15266353;19;20018;-51
2023/11/03 18:29:22;;;;;;;5.25;1.55;;;;;;;7.70;100.00;95823.66;15264814;19;20496;-53
2023/11/03 18:34:48;;;;;;;5.45;1.65;;;;;;;7.67;100.00;95829.47;15264936;19;20027;-52
2023/11/03 18:40:16;;;;;;;5.18;1.92;;;;;;;7.62;100.00;95826.56;15270379;19;20038;-52
2023/11/03 18:45:44;;;;;;;5.10;1.67;;;;;;;7.59;100.00;95821.63;15262724;19;20038;-51
2023/11/03 18:51:10;;;;;;;3.47;1.40;;;;;;;7.60;100.00;95827.81;15269574;19;20035;-49
2023/11/03 18:56:46;;;;;;;6.55;1.50;;;;;;;7.61;100.00;95838.31;15264070;19;20018;-49
2023/11/03 19:02:17;;;;;;;7.15;1.60;;;;;;;7.61;100.00;95837.50;15261010;19;20022;-47
2023/11/03 19:08:03;;;;;;;3.58;1.40;;;;;;;7.63;100.00;95838.94;15264374;19;20014;-46
2023/11/03 19:13:29;;;;;;;3.38;1.27;;;;;;;7.65;100.00;95844.91;15270969;19;20091;-48
2023/11/03 19:18:56;;;;;;;5.60;1.40;;;;;;;7.66;100.00;95853.75;15280814;19;20018;-47
2023/11/03 19:24:23;;;;;;;3.38;1.25;;;;;;;7.66;100.00;95867.16;15277504;19;20028;-48
2023/11/03 19:29:49;;;;;;;3.15;1.17;;;;;;;7.68;100.00;95881.19;15283449;19;20030;-47
2023/11/03 19:35:17;;;;;;;4.97;1.38;;;;;;;7.67;100.00;95875.03;15277154;19;20027;-52
2023/11/03 19:40:41;;;;;;;3.97;1.40;;;;;;;7.65;100.00;95886.94;15281374;19;20455;-48
2023/11/03 19:46:07;;;;;;;5.47;1.42;;;;;;;7.64;100.00;95891.50;15277280;19;20070;-46
2023/11/03 19:51:34;;;;;;;6.40;1.50;;;;;;;7.64;100.00;95896.03;15281229;19;20006;-50
2023/11/03 19:56:59;;;;;;;3.47;1.85;;;;;;;7.63;100.00;95895.19;15276924;19;20085;-48
2023/11/03 20:02:23;;;;;;;3.33;1.30;;;;;;;7.62;100.00;95908.81;15273198;19;20077;-51
2023/11/03 20:07:51;;;;;;;3.13;1.40;;;;;;;7.62;100.00;95914.19;15276012;19;20024;-48
2023/11/03 20:13:16;;;;;;;3.65;1.30;;;;;;;7.58;100.00;95929.84;15279485;19;20024;-51
2023/11/03 20:18:41;;;;;;;7.13;1.70;;;;;;;7.57;100.00;95922.81;15280032;19;20031;-47
2023/11/03 20:24:09;;;;;;;7.55;1.33;;;;;;;7.55;100.00;95924.88;15277761;19;20016;-50
2023/11/03 20:29:34;;;;;;;10.80;5.50;;;;;;;7.56;100.00;95931.88;15279917;19;20019;-49
2023/11/03 20:34:59;;;;;;;4.57;1.33;;;;;;;7.53;100.00;95943.81;15272516;19;20045;-50
2023/11/03 20:40:27;;;;;;;5.57;1.60;;;;;;;7.56;100.00;95940.75;15275315;19;20082;-48
2023/11/03 20:45:53;;;;;;;5.15;1.30;;;;;;;7.54;100.00;95944.66;15272228;19;20020;-51
2023/11/03 20:51:18;;;;;;;3.97;1.15;;;;;;;7.52;100.00;95938.69;15290346;19;20428;-50
2023/11/03 20:56:46;;;;;;;3.67;1.15;;;;;;;7.51;100.00;95934.34;15295266;19;20018;-52
2023/11/03 21:02:12;;;;;;;6.40;1.45;;;;;;;7.47;100.00;95938.44;15276307;19;20014;-49
2023/11/03 21:07:37;;;;;;;4.43;1.15;;;;;;;7.45;100.00;95932.50;15265883;19;20014;-50
2023/11/03 21:13:06;;;;;;;3.05;1.13;;;;;;;7.45;100.00;95945.88;15273104;19;20374;-52
2023/11/03 21:18:32;;;;;;;4.35;1.27;;;;;;;7.52;100.00;95946.72;15276268;19;20013;-49
2023/11/03 21:23:56;;;;;;;4.53;1.33;;;;;;;7.50;100.00;95938.03;15266919;19;20043;-49
2023/11/03 21:29:24;;;;;;;4.68;1.00;;;;;;;7.49;100.00;95941.75;15275509;19;20018;-49
2023/11/03 21:34:48;;;;;;;4.00;1.00;;;;;;;7.48;100.00;95940.09;15265911;19;20010;-50
2023/11/03 21:40:17;;;;;;;4.90;1.27;;;;;;;7.43;100.00;95943.38;15270544;19;20502;-49
2023/11/03 21:45:45;;;;;;;5.68;1.20;;;;;;;7.32;100.00;95955.53;15268760;19;20014;-47
2023/11/03 21:51:10;;;;;;;4.80;1.23;;;;;;;7.23;100.00;95962.09;15273573;19;20007;-49
2023/11/03 21:56:35;;;;;;;3.67;1.23;;;;;;;7.15;100.00;95957.75;15270780;19;20243;-48
2023/11/03 22:02:05;;;;;;;3.10;1.20;;;;;;;7.09;100.00;95959.38;15270875;19;20721;-49
2023/11/03 22:07:29;;;;;;;5.80;1.35;;;;;;;7.05;100.00;95962.66;15267209;19;20010;-49
2023/11/03 22:12:54;;;;;;;5.10;1.45;;;;;;;6.97;100.00;95960.97;15263422;19;20011;-49
2023/11/03 22:18:21;;;;;;;5.78;1.63;;;;;;;6.91;100.00;95973.28;15270440;19;20019;-48
2023/11/03 22:23:47;;;;;;;4.72;1.27;;;;;;;6.85;100.00;95989.31;15271425;19;20044;-48
2023/11/03 22:29:11;;;;;;;4.35;1.30;;;;;;;6.81;100.00;95988.06;15271957;19;20058;-47
2023/11/03 22:34:39;;;;;;;4.35;1.25;;;;;;;6.75;100.00;95987.84;15267741;19;20363;-48
2023/11/03 22:40:03;;;;;;;6.13;1.63;;;;;;;6.71;100.00;95994.59;15272807;19;20097;-48
2023/11/03 22:45:28;;;;;;;4.72;1.40;;;;;;;6.68;100.00;95994.97;15260714;19;20531;-48
2023/11/03 22:50:55;;;;;;;4.45;1.40;;;;;;;6.66;100.00;96002.38;15271951;19;20031;-49
2023/11/03 22:56:20;;;;;;;3.78;1.48;;;;;;;6.62;100.00;96009.97;15265847;19;20089;-47
2023/11/03 23:01:44;;;;;;;6.15;1.33;;;;;;;6.60;100.00;96009.34;15268702;19;20035;-48
2023/11/03 23:07:12;;;;;;;5.78;1.42;;;;;;;6.59;100.00;96017.56;14754578;19;10000747;-48
2023/11/03 23:12:37;;;;;;;5.00;1.40;;;;;;;6.57;100.00;96027.63;15268508;19;20551;-48
2023/11/03 23:18:01;;;;;;;5.40;1.30;;;;;;;6.54;100.00;96026.19;15264141;19;20010;-49
2023/11/03 23:23:29;;;;;;;4.18;1.25;;;;;;;6.50;100.00;96026.75;15264215;19;20025;-48
2023/11/03 23:28:54;;;;;;;4.35;1.48;;;;;;;6.47;100.00;96026.13;15265958;19;20015;-47
2023/11/03 23:34:12;;;;;;;5.93;1.30;;;;;;;6.44;100.00;96015.00;15266290;19;20025;-48
2023/11/03 23:39:40;;;;;;;7.47;1.40;;;;;;;6.42;100.00;96027.72;15267855;19;20035;-48
2023/11/03 23:45:05;;;;;;;5.88;1.20;;;;;;;6.33;100.00;96019.00;15264735;19;20484;-47
2023/11/03 23:50:29;;;;;;;5.10;1.50;;;;;;;6.24;100.00;96014.84;15264087;19;20017;-49
2023/11/03 23:55:57;;;;;;;4.20;1.40;;;;;;;6.16;100.00;96013.97;15262232;19;20468;-47
